createdAt,value
2022-08-14T00:01:10.024Z,1.42
2022-08-14T00:03:40.439Z,1.40
2022-08-14T00:06:13.888Z,1.40
2022-08-14T00:08:52.201Z,1.17
2022-08-14T00:11:19.946Z,1.42
2022-08-14T00:13:52.824Z,1.77
2022-08-14T00:16:41.576Z,1.55
2022-08-14T00:19:19.068Z,1.63
2022-08-14T00:21:50.397Z,1.60
2022-08-14T00:24:22.828Z,1.48
2022-08-14T00:26:55.795Z,1.25
2022-08-14T00:29:25.195Z,1.45
2022-08-14T00:31:56.250Z,1.50
2022-08-14T00:34:37.951Z,1.48
2022-08-14T00:37:11.613Z,1.30
2022-08-14T00:39:39.790Z,1.70
2022-08-14T00:42:21.154Z,1.90
2022-08-14T00:44:55.540Z,1.70
2022-08-14T00:47:24.713Z,1.50
2022-08-14T00:49:56.283Z,1.63
2022-08-14T00:52:25.935Z,1.58
2022-08-14T00:54:58.013Z,1.40
2022-08-14T00:57:28.839Z,1.38
2022-08-14T00:59:57.363Z,1.40
2022-08-14T01:02:28.230Z,1.53
2022-08-14T01:05:00.779Z,1.33
2022-08-14T01:07:29.821Z,1.60
2022-08-14T01:10:06.237Z,1.50
2022-08-14T01:12:33.854Z,1.63
2022-08-14T01:15:09.725Z,1.75
2022-08-14T01:18:00.418Z,1.65
2022-08-14T01:20:46.034Z,1.67
2022-08-14T01:23:15.581Z,1.40
2022-08-14T01:25:46.557Z,1.33
2022-08-14T01:28:34.287Z,1.35
2022-08-14T01:31:05.934Z,1.60
2022-08-14T01:33:39.554Z,1.55
2022-08-14T01:36:23.328Z,1.48
2022-08-14T01:38:55.316Z,1.40
2022-08-14T01:41:30.171Z,1.33
2022-08-14T01:44:02.288Z,1.20
2022-08-14T01:46:36.760Z,1.58
2022-08-14T01:49:07.560Z,1.30
2022-08-14T01:51:36.509Z,1.55
2022-08-14T01:54:14.384Z,1.30
2022-08-14T01:56:44.620Z,1.38
2022-08-14T01:59:23.906Z,1.05
2022-08-14T02:01:59.135Z,1.10
2022-08-14T02:04:54.547Z,1.00
2022-08-14T02:07:44.758Z,1.08
2022-08-14T02:10:13.180Z,1.40
2022-08-14T02:12:53.976Z,1.02
2022-08-14T02:15:24.805Z,1.40
2022-08-14T02:17:52.684Z,1.15
2022-08-14T02:20:23.931Z,1.50
2022-08-14T02:22:54.619Z,1.38
2022-08-14T02:25:22.456Z,1.40
2022-08-14T02:28:24.615Z,1.40
2022-08-14T02:30:40.003Z,1.23
2022-08-14T02:33:07.801Z,1.40
2022-08-14T02:35:41.519Z,1.50
2022-08-14T02:38:11.605Z,1.58
2022-08-14T02:40:58.540Z,1.48
2022-08-14T02:43:37.045Z,1.50
2022-08-14T02:46:12.907Z,1.42
2022-08-14T02:49:04.146Z,1.70
2022-08-14T02:51:30.443Z,2.80
2022-08-14T02:53:58.330Z,2.20
2022-08-14T02:56:30.529Z,2.45
2022-08-14T02:59:15.915Z,2.22
2022-08-14T03:01:43.876Z,2.85
2022-08-14T03:04:20.219Z,1.90
2022-08-14T03:09:42.280Z,1.58
2022-08-14T03:12:30.954Z,1.60
2022-08-14T03:15:02.680Z,1.63
2022-08-14T03:17:31.893Z,1.77
2022-08-14T03:20:11.188Z,1.73
2022-08-14T03:22:41.919Z,1.65
2022-08-14T03:25:10.040Z,1.35
2022-08-14T03:27:48.549Z,1.85
2022-08-14T03:30:38.931Z,1.42
2022-08-14T03:33:11.117Z,1.60
2022-08-14T03:35:59.946Z,1.42
2022-08-14T03:39:12.539Z,1.58
2022-08-14T03:41:23.709Z,1.52
2022-08-14T03:44:01.316Z,1.70
2022-08-14T03:46:54.400Z,1.58
2022-08-14T03:49:28.508Z,1.58
2022-08-14T03:51:57.455Z,1.85
2022-08-14T03:54:25.852Z,2.60
2022-08-14T03:56:54.483Z,2.33
2022-08-14T03:59:22.288Z,1.80
2022-08-14T04:01:57.799Z,2.03
2022-08-14T04:04:27.961Z,1.80
2022-08-14T04:06:58.952Z,2.53
2022-08-14T04:09:27.086Z,2.05
2022-08-14T04:11:56.199Z,1.90
2022-08-14T04:14:25.199Z,2.03
2022-08-14T04:16:51.872Z,1.85
2022-08-14T04:19:23.993Z,2.08
2022-08-14T04:22:03.030Z,1.90
2022-08-14T04:24:37.586Z,1.50
2022-08-14T04:27:09.406Z,1.95
2022-08-14T04:29:42.539Z,2.00
2022-08-14T04:32:57.601Z,2.15
2022-08-14T04:34:58.788Z,2.33
2022-08-14T04:37:45.684Z,1.88
2022-08-14T04:40:35.298Z,1.88
2022-08-14T04:43:21.031Z,2.00
2022-08-14T04:45:51.308Z,2.00
2022-08-14T04:48:39.214Z,2.20
2022-08-14T04:51:11.205Z,1.85
2022-08-14T04:53:43.239Z,1.98
2022-08-14T04:56:31.553Z,1.98
2022-08-14T04:59:10.599Z,2.35
2022-08-14T05:01:41.580Z,2.05
2022-08-14T05:04:16.087Z,2.15
2022-08-14T05:06:46.356Z,2.10
2022-08-14T05:11:44.521Z,1.90
2022-08-14T05:14:33.884Z,1.77
2022-08-14T05:17:02.102Z,2.00
2022-08-14T05:19:31.894Z,2.50
2022-08-14T05:22:17.396Z,2.30
2022-08-14T05:24:50.586Z,1.90
2022-08-14T05:27:22.913Z,2.15
2022-08-14T05:29:51.392Z,2.90
2022-08-14T05:32:18.171Z,2.45
2022-08-14T05:34:46.104Z,2.45
2022-08-14T05:37:15.403Z,2.10
2022-08-14T05:39:43.215Z,2.13
2022-08-14T05:42:22.442Z,2.80
2022-08-14T05:44:55.961Z,2.45
2022-08-14T05:47:23.792Z,2.08
2022-08-14T05:49:51.569Z,2.40
2022-08-14T05:52:18.813Z,2.47
2022-08-14T05:54:53.197Z,2.63
2022-08-14T05:57:20.800Z,2.13
2022-08-14T05:59:48.226Z,2.35
2022-08-14T06:02:14.949Z,2.65
2022-08-14T06:04:48.197Z,2.38
2022-08-14T06:07:17.206Z,2.78
2022-08-14T06:09:50.956Z,1.92
2022-08-14T06:12:31.449Z,2.95
2022-08-14T06:15:08.126Z,2.63
2022-08-14T06:17:59.314Z,2.05
2022-08-14T06:20:28.681Z,2.85
2022-08-14T06:22:57.453Z,3.13
2022-08-14T06:25:27.742Z,2.40
2022-08-14T06:27:54.740Z,2.40
2022-08-14T06:30:30.394Z,2.25
2022-08-14T06:33:13.537Z,2.22
2022-08-14T06:35:42.831Z,2.60
2022-08-14T06:38:18.966Z,2.10
2022-08-14T06:40:46.706Z,2.60
2022-08-14T06:43:15.261Z,1.90
2022-08-14T06:45:54.040Z,2.13
2022-08-14T06:50:53.797Z,1.83
2022-08-14T06:53:21.738Z,2.13
2022-08-14T06:55:56.168Z,2.30
2022-08-14T06:58:28.687Z,1.70
2022-08-14T07:01:19.265Z,1.55
2022-08-14T07:04:18.889Z,1.77
2022-08-14T07:06:50.319Z,2.08
2022-08-14T07:09:22.615Z,1.58
2022-08-14T07:11:51.637Z,1.63
2022-08-14T07:14:18.480Z,1.50
2022-08-14T07:16:45.195Z,1.75
2022-08-14T07:19:12.176Z,1.60
2022-08-14T07:21:39.503Z,2.25
2022-08-14T07:24:06.777Z,2.00
2022-08-14T07:26:38.776Z,2.45
2022-08-14T07:29:07.714Z,1.95
2022-08-14T07:31:34.505Z,1.70
2022-08-14T07:34:04.149Z,1.65
2022-08-14T07:36:31.295Z,1.40
2022-08-14T07:39:02.956Z,1.42
2022-08-14T07:41:33.484Z,1.65
2022-08-14T07:44:29.543Z,1.30
2022-08-14T07:46:49.686Z,1.80
2022-08-14T07:49:17.794Z,1.40
2022-08-14T07:51:45.789Z,1.52
2022-08-14T07:54:23.338Z,1.13
2022-08-14T07:57:06.634Z,1.25
2022-08-14T07:59:43.457Z,1.50
2022-08-14T08:02:17.060Z,1.08
2022-08-14T08:04:49.607Z,1.83
2022-08-14T08:07:16.946Z,1.35
2022-08-14T08:09:53.122Z,1.30
2022-08-14T08:12:24.987Z,1.75
2022-08-14T08:15:02.654Z,1.58
2022-08-14T08:17:34.942Z,1.42
2022-08-14T08:20:09.281Z,1.70
2022-08-14T08:22:43.470Z,1.33
2022-08-14T08:25:18.065Z,1.58
2022-08-14T08:28:08.288Z,1.27
2022-08-14T08:30:49.613Z,1.20
2022-08-14T08:33:18.541Z,1.10
2022-08-14T08:35:50.621Z,1.13
2022-08-14T08:39:15.702Z,1.17
2022-08-14T08:41:11.546Z,1.33
2022-08-14T08:43:39.440Z,1.33
2022-08-14T08:46:21.137Z,1.40
2022-08-14T08:48:53.757Z,1.00
2022-08-14T08:51:30.688Z,1.45
2022-08-14T08:54:15.146Z,1.10
2022-08-14T08:56:48.362Z,1.00
2022-08-14T08:59:30.781Z,1.27
2022-08-14T09:02:00.807Z,1.50
2022-08-14T09:04:45.501Z,1.40
2022-08-14T09:07:25.832Z,1.45
2022-08-14T09:10:00.164Z,1.17
2022-08-14T09:12:33.341Z,1.30
2022-08-14T09:15:02.353Z,1.20
2022-08-14T09:17:29.411Z,1.10
2022-08-14T09:19:56.910Z,1.00
2022-08-14T09:22:35.743Z,1.17
2022-08-14T09:25:07.314Z,1.40
2022-08-14T09:27:35.589Z,1.10
2022-08-14T09:30:13.296Z,1.37
2022-08-14T09:33:09.313Z,1.02
2022-08-14T09:36:00.525Z,1.15
2022-08-14T09:38:54.423Z,1.30
2022-08-14T09:42:20.352Z,1.23
2022-08-14T09:44:54.424Z,1.13
2022-08-14T09:47:21.206Z,1.20
2022-08-14T09:49:53.164Z,1.35
2022-08-14T09:52:33.205Z,0.75
2022-08-14T09:55:01.350Z,1.33
2022-08-14T09:57:31.488Z,0.90
2022-08-14T09:59:58.506Z,1.38
2022-08-14T10:02:31.012Z,1.10
2022-08-14T10:05:01.559Z,1.30
2022-08-14T10:07:36.121Z,0.70
2022-08-14T10:10:23.295Z,1.38
2022-08-14T10:12:53.003Z,0.90
2022-08-14T10:15:25.222Z,0.95
2022-08-14T10:18:17.618Z,1.10
2022-08-14T10:21:09.540Z,0.90
2022-08-14T10:23:52.479Z,1.10
2022-08-14T10:26:23.002Z,1.08
2022-08-14T10:29:19.453Z,1.13
2022-08-14T10:31:59.093Z,0.90
2022-08-14T10:34:35.725Z,1.00
2022-08-14T10:37:14.693Z,1.00
2022-08-14T10:39:51.157Z,1.00
2022-08-14T10:42:40.246Z,1.08
2022-08-14T10:45:22.198Z,1.08
2022-08-14T10:48:09.299Z,1.10
2022-08-14T10:53:09.385Z,0.80
2022-08-14T10:55:45.113Z,1.30
2022-08-14T10:58:14.041Z,0.90
2022-08-14T11:00:56.574Z,0.80
2022-08-14T11:03:36.123Z,1.67
2022-08-14T11:06:20.026Z,0.73
2022-08-14T11:08:48.712Z,0.90
2022-08-14T11:11:18.915Z,0.88
2022-08-14T11:13:46.559Z,0.70
2022-08-14T11:16:15.272Z,0.70
2022-08-14T11:18:51.067Z,0.95
2022-08-14T11:21:21.905Z,1.00
2022-08-14T11:23:49.389Z,0.88
2022-08-14T11:26:22.675Z,0.80
2022-08-14T11:28:52.094Z,0.82
2022-08-14T11:31:23.334Z,1.20
2022-08-14T11:33:57.330Z,0.80
2022-08-14T11:36:35.354Z,1.00
2022-08-14T11:39:34.827Z,1.00
2022-08-14T11:42:58.038Z,0.70
2022-08-14T11:45:03.281Z,0.90
2022-08-14T11:48:08.243Z,0.80
2022-08-14T11:50:36.104Z,0.80
2022-08-14T11:53:07.091Z,0.80
2022-08-14T11:55:38.096Z,0.80
2022-08-14T11:58:11.044Z,0.93
2022-08-14T12:00:48.857Z,0.80
2022-08-14T12:03:19.799Z,1.00
2022-08-14T12:05:50.048Z,0.90
2022-08-14T12:08:24.604Z,1.10
2022-08-14T12:10:57.345Z,1.20
2022-08-14T12:13:27.418Z,0.90
2022-08-14T12:16:00.999Z,0.88
2022-08-14T12:18:40.141Z,0.73
2022-08-14T12:21:19.450Z,1.10
2022-08-14T12:24:03.117Z,0.90
2022-08-14T12:26:38.866Z,0.95
2022-08-14T12:29:08.854Z,1.10
2022-08-14T12:31:44.721Z,0.98
2022-08-14T12:36:49.934Z,0.93
2022-08-14T12:39:24.150Z,1.17
2022-08-14T12:42:06.608Z,1.05
2022-08-14T12:44:35.012Z,1.67
2022-08-14T12:49:29.545Z,0.80
2022-08-14T12:51:59.063Z,1.45
2022-08-14T12:54:28.673Z,1.00
2022-08-14T12:57:18.731Z,0.85
2022-08-14T12:59:47.408Z,0.90
2022-08-14T13:02:27.073Z,0.90
2022-08-14T13:04:55.970Z,0.80
2022-08-14T13:07:26.291Z,0.95
2022-08-14T13:09:58.340Z,0.80
2022-08-14T13:12:56.646Z,0.80
2022-08-14T13:15:15.905Z,1.00
2022-08-14T13:17:51.125Z,1.08
2022-08-14T13:20:24.405Z,1.02
2022-08-14T13:22:53.053Z,0.80
2022-08-14T13:25:24.339Z,0.90
2022-08-14T13:27:57.619Z,0.80
2022-08-14T13:30:25.780Z,0.85
2022-08-14T13:32:54.494Z,1.13
2022-08-14T13:35:25.222Z,1.00
2022-08-14T13:37:53.571Z,0.80
2022-08-14T13:40:26.219Z,1.00
2022-08-14T13:42:55.210Z,0.90
2022-08-14T13:45:33.660Z,0.90
2022-08-14T13:48:18.293Z,0.90
2022-08-14T13:51:01.706Z,0.90
2022-08-14T13:53:33.739Z,1.17
2022-08-14T13:56:01.492Z,1.23
2022-08-14T13:58:34.348Z,0.98
2022-08-14T14:01:04.269Z,0.90
2022-08-14T14:03:38.101Z,1.10
2022-08-14T14:06:05.531Z,0.93
2022-08-14T14:08:43.528Z,0.93
2022-08-14T14:11:23.883Z,0.93
2022-08-14T14:14:00.221Z,1.40
2022-08-14T14:16:30.914Z,1.40
2022-08-14T14:19:09.098Z,0.90
2022-08-14T14:21:37.680Z,0.93
2022-08-14T14:24:06.060Z,1.10
2022-08-14T14:26:33.232Z,1.00
2022-08-14T14:29:06.175Z,1.00
2022-08-14T14:31:39.017Z,0.90
2022-08-14T14:34:20.124Z,1.10
2022-08-14T14:37:02.417Z,1.00
2022-08-14T14:39:30.400Z,0.88
2022-08-14T14:42:04.141Z,0.90
2022-08-14T14:44:40.118Z,1.00
2022-08-14T14:47:11.440Z,0.90
2022-08-14T14:49:51.252Z,1.00
2022-08-14T14:52:27.805Z,0.90
2022-08-14T14:54:59.557Z,1.08
2022-08-14T14:57:35.121Z,1.30
2022-08-14T15:02:59.495Z,1.08
2022-08-14T15:05:28.615Z,1.05
2022-08-14T15:07:55.866Z,1.10
2022-08-14T15:10:27.323Z,1.40
2022-08-14T15:13:00.264Z,1.17
2022-08-14T15:15:33.000Z,1.20
2022-08-14T15:18:01.067Z,1.23
2022-08-14T15:20:30.367Z,1.40
2022-08-14T15:23:12.083Z,1.20
2022-08-14T15:25:41.044Z,1.75
2022-08-14T15:28:11.530Z,1.40
2022-08-14T15:30:41.818Z,1.10
2022-08-14T15:33:09.821Z,1.00
2022-08-14T15:35:37.149Z,1.17
2022-08-14T15:38:12.037Z,1.60
2022-08-14T15:40:44.524Z,1.00
2022-08-14T15:43:18.728Z,1.90
2022-08-14T15:45:46.516Z,1.00
2022-08-14T15:48:22.265Z,1.00
2022-08-14T15:50:50.719Z,1.40
2022-08-14T15:53:22.284Z,1.10
2022-08-14T15:55:53.046Z,1.25
2022-08-14T15:58:24.105Z,1.17
2022-08-14T16:01:12.525Z,1.48
2022-08-14T16:03:42.559Z,1.05
2022-08-14T16:06:17.738Z,1.15
2022-08-14T16:08:58.726Z,0.98
2022-08-14T16:11:33.174Z,0.95
2022-08-14T16:14:01.033Z,1.23
2022-08-14T16:16:49.498Z,1.17
2022-08-14T16:19:19.229Z,1.63
2022-08-14T16:22:02.255Z,0.93
2022-08-14T16:24:59.728Z,1.15
2022-08-14T16:27:39.394Z,1.00
2022-08-14T16:30:25.460Z,1.00
2022-08-14T16:32:59.171Z,1.10
2022-08-14T16:35:42.784Z,1.10
2022-08-14T16:38:46.370Z,1.38
2022-08-14T16:41:22.024Z,1.08
2022-08-14T16:43:53.024Z,1.30
2022-08-14T16:46:22.109Z,1.40
2022-08-14T16:48:55.355Z,1.30
2022-08-14T16:51:24.281Z,1.20
2022-08-14T16:53:52.281Z,1.20
2022-08-14T16:56:24.162Z,1.35
2022-08-14T16:59:17.009Z,1.67
2022-08-14T17:01:45.888Z,1.10
2022-08-14T17:04:24.770Z,1.30
2022-08-14T17:06:54.886Z,1.85
2022-08-14T17:09:32.434Z,1.60
2022-08-14T17:12:29.127Z,1.40
2022-08-14T17:15:10.527Z,1.50
2022-08-14T17:17:40.754Z,1.40
2022-08-14T17:20:39.467Z,1.83
2022-08-14T17:23:00.292Z,1.20
2022-08-14T17:25:29.999Z,1.10
2022-08-14T17:30:59.316Z,1.65
2022-08-14T17:33:40.516Z,1.85
2022-08-14T17:36:21.203Z,1.67
2022-08-14T17:39:06.558Z,1.45
2022-08-14T17:41:43.570Z,1.48
2022-08-14T17:44:10.959Z,1.17
2022-08-14T17:46:49.872Z,1.10
2022-08-14T17:49:24.277Z,1.40
2022-08-14T17:52:34.115Z,1.10
2022-08-14T17:55:05.637Z,1.60
2022-08-14T17:57:45.393Z,1.33
2022-08-14T18:00:16.396Z,1.70
2022-08-14T18:02:50.644Z,1.10
2022-08-14T18:05:18.253Z,1.13
2022-08-14T18:08:32.691Z,1.60
2022-08-14T18:10:55.754Z,2.00
2022-08-14T18:13:49.840Z,2.20
2022-08-14T18:16:19.714Z,1.52
2022-08-14T18:18:48.397Z,2.03
2022-08-14T18:21:42.678Z,2.22
2022-08-14T18:24:02.369Z,2.10
2022-08-14T18:26:37.123Z,1.47
2022-08-14T18:29:11.470Z,1.95
2022-08-14T18:31:43.893Z,2.10
2022-08-14T18:34:31.912Z,3.25
2022-08-14T18:37:18.372Z,1.77
2022-08-14T18:40:01.616Z,2.40
2022-08-14T18:42:33.271Z,1.67
2022-08-14T18:45:01.542Z,2.00
2022-08-14T18:48:03.411Z,3.13
2022-08-14T18:50:31.036Z,2.60
2022-08-14T18:53:10.813Z,1.70
2022-08-14T18:55:53.176Z,2.20
2022-08-14T18:58:41.861Z,1.98
2022-08-14T19:01:22.920Z,1.90
2022-08-14T19:03:52.224Z,1.70
2022-08-14T19:20:58.219Z,1.38
2022-08-14T19:23:43.266Z,1.70
2022-08-14T19:26:36.932Z,1.90
2022-08-14T19:29:20.830Z,1.60
2022-08-14T19:31:55.895Z,1.38
2022-08-14T19:34:52.106Z,1.75
2022-08-14T19:37:52.475Z,1.63
2022-08-14T19:40:40.028Z,2.15
2022-08-14T19:43:09.486Z,1.77
2022-08-14T19:45:38.703Z,2.25
2022-08-14T19:48:15.727Z,1.60
2022-08-14T19:50:46.089Z,1.67
2022-08-14T19:53:17.207Z,1.70
2022-08-14T19:56:02.001Z,1.40
2022-08-14T19:58:55.345Z,2.00
2022-08-14T20:01:37.102Z,3.03
2022-08-14T20:04:45.147Z,2.30
2022-08-14T20:07:00.076Z,2.35
2022-08-14T20:11:07.094Z,1.58
2022-08-14T20:12:29.251Z,1.58
2022-08-14T20:15:09.159Z,2.55
2022-08-14T20:17:40.479Z,1.80
2022-08-14T20:20:31.778Z,1.83
2022-08-14T20:23:10.776Z,2.13
2022-08-14T20:25:45.398Z,2.53
2022-08-14T20:28:31.734Z,1.90
2022-08-14T20:31:17.960Z,2.42
2022-08-14T20:34:18.864Z,2.03
2022-08-14T20:37:20.389Z,2.13
2022-08-14T20:39:54.258Z,1.90
2022-08-14T20:42:43.391Z,2.53
2022-08-14T20:45:21.652Z,1.67
2022-08-14T20:47:58.304Z,1.73
2022-08-14T20:50:29.176Z,2.60
2022-08-14T20:52:58.302Z,2.35
2022-08-14T20:55:35.380Z,2.10
2022-08-14T20:58:09.733Z,2.10
2022-08-14T21:00:51.620Z,1.70
2022-08-14T21:03:56.319Z,2.40
2022-08-14T21:07:22.992Z,2.33
2022-08-14T21:10:03.030Z,1.92
2022-08-14T21:12:34.745Z,2.20
2022-08-14T21:15:00.840Z,2.10
2022-08-14T21:17:29.571Z,1.70
2022-08-14T21:19:56.814Z,1.80
2022-08-14T21:22:24.909Z,1.90
2022-08-14T21:25:01.744Z,2.00
2022-08-14T21:27:37.125Z,1.83
2022-08-14T21:30:08.651Z,1.60
2022-08-14T21:32:50.274Z,1.83
2022-08-14T21:35:25.109Z,1.50
2022-08-14T21:37:53.684Z,2.25
2022-08-14T21:40:39.972Z,1.55
2022-08-14T21:43:11.606Z,1.50
2022-08-14T21:45:45.572Z,2.58
2022-08-14T21:48:21.349Z,1.48
2022-08-14T21:51:01.676Z,2.00
2022-08-14T21:53:58.340Z,1.67
2022-08-14T21:56:38.588Z,2.00
2022-08-14T21:59:09.683Z,1.67
2022-08-14T22:02:01.401Z,1.83
2022-08-14T22:04:32.814Z,1.90
2022-08-14T22:07:07.350Z,1.85
2022-08-14T22:09:36.588Z,1.60
2022-08-14T22:12:08.641Z,1.88
2022-08-14T22:14:43.189Z,1.85
2022-08-14T22:17:17.013Z,1.60
2022-08-14T22:19:54.084Z,1.73
2022-08-14T22:22:23.912Z,1.92
2022-08-14T22:24:59.619Z,1.95
2022-08-14T22:27:39.368Z,1.83
2022-08-14T22:30:18.614Z,1.42
2022-08-14T22:32:57.555Z,1.60
2022-08-14T22:35:25.786Z,1.70
2022-08-14T22:38:01.751Z,1.60
2022-08-14T22:41:17.753Z,2.35
2022-08-14T22:43:31.146Z,1.60
2022-08-14T22:46:02.146Z,1.50
2022-08-14T22:48:29.669Z,1.67
2022-08-14T22:50:56.464Z,1.88
2022-08-14T22:53:24.439Z,1.77
2022-08-14T22:55:57.857Z,1.90
2022-08-14T23:01:04.661Z,1.95
2022-08-14T23:03:36.287Z,1.70
2022-08-14T23:07:02.514Z,2.22
2022-08-14T23:09:02.095Z,1.60
2022-08-14T23:11:40.560Z,1.67
2022-08-14T23:14:12.322Z,1.90
2022-08-14T23:16:40.585Z,1.65
2022-08-14T23:19:14.224Z,1.73
2022-08-14T23:21:46.532Z,1.75
2022-08-14T23:24:17.057Z,1.45
2022-08-14T23:26:54.884Z,1.98
2022-08-14T23:29:22.554Z,1.83
2022-08-14T23:31:49.746Z,1.67
2022-08-14T23:34:20.830Z,2.13
2022-08-14T23:36:54.629Z,1.85
2022-08-14T23:39:30.319Z,1.52
2022-08-14T23:42:04.804Z,1.63
2022-08-14T23:44:37.035Z,1.50
2022-08-14T23:47:12.094Z,1.70
2022-08-14T23:50:01.148Z,1.42
2022-08-14T23:52:50.820Z,1.88
2022-08-14T23:55:26.265Z,1.73
2022-08-14T23:57:58.231Z,1.35
